Terminal Aerodrome Forecast
Issued by NWS Grand Junction, CO

Home | Current Version | Previous Version | Text Only | Print | Product List | Glossary On
Versions: 1 2 3 4 5 6 7 8 9 10 11 12 13 14 15 16 17 18 19 20 21 22 23 24
698
FTUS45 KGJT 232327
TAFGJT
TAF
KGJT 232327Z 2400/2424 24008KT P6SM FEW250
     FM240200 06004KT P6SM FEW200
     FM240800 09008KT P6SM FEW200
     FM241400 13007KT P6SM SKC
     FM241800 24008KT P6SM FEW250
     FM242200 26012G21KT P6SM FEW250=

USA.gov is the U.S. government's official web portal to all federal, state and local government web resources and services.